Time;durP1;ratioP1;P1;durP2;ratioP2;P2;SDS_P1;SDS_P2;PMS_P1;PMS_P2;Temp;Humidity;BMP_temperature;BMP_pressure;BME280_temperature;BME280_humidity;BME280_pressure;Samples;Min_cycle;Max_cycle;Signal;HPM_P1;HPM_P2
2021/11/17 02:28:09;;;;;;;1.75;1.10;;;22.10;39.10;;;;;;5071958;28;20387;-70
2021/11/17 02:30:40;;;;;;;1.60;1.08;;;22.10;39.10;;;;;;5070712;28;20396;-70
2021/11/17 02:33:19;;;;;;;1.75;1.20;;;22.10;39.20;;;;;;5070947;28;20400;-70
2021/11/17 02:36:16;;;;;;;1.40;1.20;;;22.10;39.20;;;;;;5038360;28;20404;-70
2021/11/17 02:38:56;;;;;;;1.60;1.20;;;22.10;39.30;;;;;;5053739;28;20415;-70
2021/11/17 02:41:34;;;;;;;1.95;1.08;;;22.10;39.30;;;;;;5071078;28;20387;-70
2021/11/17 02:44:07;;;;;;;1.40;1.10;;;22.10;39.30;;;;;;5054825;28;20396;-70
2021/11/17 02:46:44;;;;;;;1.80;1.10;;;22.10;39.30;;;;;;5053820;28;20403;-70
2021/11/17 02:49:35;;;;;;;1.42;1.20;;;22.10;39.30;;;;;;5070452;28;20396;-70
2021/11/17 02:52:19;;;;;;;1.70;1.20;;;22.10;39.30;;;;;;5054076;28;20806;-70
2021/11/17 02:55:29;;;;;;;1.90;1.20;;;22.10;39.30;;;;;;5070480;28;20391;-70
2021/11/17 02:58:01;;;;;;;1.20;1.00;;;22.10;39.30;;;;;;5069451;28;20423;-70
2021/11/17 03:00:38;;;;;;;1.65;1.00;;;22.00;39.20;;;;;;5069658;28;20462;-70
2021/11/17 03:03:27;;;;;;;1.55;1.15;;;22.10;39.30;;;;;;5061827;28;20482;-70
2021/11/17 03:06:11;;;;;;;1.35;1.10;;;22.00;39.30;;;;;;5070356;28;20400;-70
2021/11/17 03:09:04;;;;;;;1.40;0.98;;;22.10;39.30;;;;;;5070509;28;20395;-70
2021/11/17 03:12:07;;;;;;;1.40;0.90;;;22.10;39.30;;;;;;5070464;28;20444;-71
2021/11/17 03:15:10;;;;;;;1.30;1.02;;;22.00;39.20;;;;;;5069422;28;20449;-70
2021/11/17 03:17:44;;;;;;;1.50;1.20;;;22.00;39.20;;;;;;5075456;28;20416;-69
2021/11/17 03:20:33;;;;;;;1.40;1.00;;;22.00;39.30;;;;;;5074296;28;20752;-70
2021/11/17 03:23:25;;;;;;;1.67;1.05;;;22.10;39.30;;;;;;5074001;28;21066;-70
2021/11/17 03:26:05;;;;;;;1.67;1.10;;;22.00;39.30;;;;;;5059945;28;20484;-70
2021/11/17 03:29:29;;;;;;;1.60;1.10;;;22.10;39.30;;;;;;5074130;28;20467;-69
2021/11/17 03:32:12;;;;;;;1.40;1.00;;;22.10;39.20;;;;;;5073014;28;20392;-71
2021/11/17 03:34:57;;;;;;;1.30;1.02;;;22.10;39.20;;;;;;5073034;28;20383;-70
2021/11/17 03:37:43;;;;;;;2.10;1.10;;;22.10;39.20;;;;;;5074308;28;20441;-70
2021/11/17 03:40:21;;;;;;;1.67;1.10;;;22.00;39.20;;;;;;5057263;28;20534;-70
2021/11/17 03:43:14;;;;;;;1.50;1.10;;;22.00;39.20;;;;;;5074944;28;20419;-70
2021/11/17 03:45:52;;;;;;;1.80;1.10;;;22.00;39.20;;;;;;5074939;28;20504;-70
2021/11/17 03:48:33;;;;;;;1.30;1.00;;;22.00;39.20;;;;;;5073692;28;20399;-70
2021/11/17 03:51:19;;;;;;;1.70;1.10;;;22.10;39.20;;;;;;5057807;28;20380;-70
2021/11/17 03:53:48;;;;;;;1.25;0.98;;;22.10;39.20;;;;;;5074545;28;20896;-70
2021/11/17 03:56:22;;;;;;;1.20;1.08;;;22.00;39.20;;;;;;5073424;28;20912;-70
2021/11/17 03:58:51;;;;;;;1.55;1.02;;;22.00;39.30;;;;;;5073451;28;20742;-71
2021/11/17 04:01:46;;;;;;;1.60;1.20;;;22.00;39.30;;;;;;5074645;28;20394;-72
2021/11/17 04:04:21;;;;;;;1.55;1.08;;;22.00;39.30;;;;;;5072701;28;20388;-72
2021/11/17 04:07:14;;;;;;;1.90;1.10;;;22.00;39.00;;;;;;5074259;28;20403;-73
2021/11/17 04:09:58;;;;;;;4.32;1.30;;;22.10;39.20;;;;;;5075512;28;20391;-72
2021/11/17 04:12:49;;;;;;;2.45;1.23;;;22.10;38.70;;;;;;5075717;28;20392;-71
2021/11/17 04:15:26;;;;;;;3.13;1.58;;;22.20;39.70;;;;;;5074726;28;20396;-72
2021/11/17 04:17:52;;;;;;;2.75;1.52;;;22.20;40.50;;;;;;5074290;28;20419;-72
2021/11/17 04:20:35;;;;;;;3.85;1.50;;;22.20;40.40;;;;;;5074493;28;20475;-73
2021/11/17 04:23:12;;;;;;;4.80;1.60;;;22.30;41.10;;;;;;5074181;28;20408;-69
2021/11/17 04:26:11;;;;;;;3.50;1.48;;;22.30;41.40;;;;;;5072986;28;20392;-71
2021/11/17 04:28:39;;;;;;;4.95;1.45;;;22.30;41.40;;;;;;5072246;28;20388;-72
2021/11/17 04:31:11;;;;;;;5.50;1.65;;;22.30;41.30;;;;;;5072714;28;20388;-72
2021/11/17 04:33:55;;;;;;;4.40;1.42;;;22.30;41.40;;;;;;5072784;28;20474;-73
2021/11/17 04:36:26;;;;;;;5.60;1.38;;;22.30;41.30;;;;;;5073977;28;20379;-72
2021/11/17 04:39:23;;;;;;;2.95;1.40;;;22.30;41.40;;;;;;5066873;28;20876;-70
2021/11/17 04:42:10;;;;;;;3.33;1.30;;;22.30;41.40;;;;;;5060296;28;20416;-71
2021/11/17 04:45:09;;;;;;;2.53;1.40;;;22.30;40.90;;;;;;5053503;28;20381;-71
2021/11/17 04:47:56;;;;;;;4.28;1.67;;;22.30;40.80;;;;;;5052667;28;20424;-71
2021/11/17 04:51:08;;;;;;;3.45;1.40;;;22.30;40.60;;;;;;5053856;28;20392;-71
2021/11/17 04:53:37;;;;;;;3.03;1.50;;;22.20;40.50;;;;;;5053604;28;20475;-71
2021/11/17 04:56:18;;;;;;;2.40;1.50;;;22.20;40.50;;;;;;5053707;28;20393;-71
2021/11/17 04:59:15;;;;;;;2.42;1.35;;;22.10;40.50;;;;;;5053601;28;20398;-71
2021/11/17 05:01:47;;;;;;;2.17;1.30;;;22.20;40.70;;;;;;5052853;28;20450;-70
2021/11/17 05:04:40;;;;;;;3.83;1.45;;;22.20;40.60;;;;;;5035811;28;20400;-71
2021/11/17 05:07:17;;;;;;;2.00;1.35;;;22.10;40.50;;;;;;5053558;28;20887;-71
2021/11/17 05:10:03;;;;;;;3.83;1.40;;;22.10;40.60;;;;;;5052284;28;20428;-72
2021/11/17 05:12:41;;;;;;;3.00;1.30;;;22.10;40.60;;;;;;5035578;28;20456;-71
2021/11/17 05:15:13;;;;;;;5.05;1.58;;;22.20;41.30;;;;;;5057946;28;20474;-71
2021/11/17 05:18:07;;;;;;;3.50;1.00;;;22.20;41.50;;;;;;5063386;28;20471;-72
2021/11/17 05:20:35;;;;;;;2.58;1.20;;;22.20;41.50;;;;;;5059148;28;20401;-72
2021/11/17 05:23:19;;;;;;;2.80;1.30;;;22.30;41.30;;;;;;5060822;28;20807;-72
2021/11/17 05:26:04;;;;;;;2.65;1.20;;;22.30;41.30;;;;;;5062274;28;20470;-71
2021/11/17 05:28:51;;;;;;;1.73;1.17;;;22.30;41.40;;;;;;5053230;28;20374;-72
2021/11/17 05:31:39;;;;;;;3.53;1.42;;;22.40;41.80;;;;;;5059934;28;20937;-71
2021/11/17 05:34:39;;;;;;;5.97;1.70;;;22.30;41.20;;;;;;5066683;28;20901;-71
2021/11/17 05:37:14;;;;;;;2.72;1.25;;;22.30;41.10;;;;;;5066263;28;20408;-72
2021/11/17 05:40:07;;;;;;;2.80;1.50;;;22.40;41.60;;;;;;5070543;28;20893;-72
2021/11/17 05:42:55;;;;;;;3.03;1.42;;;22.50;41.90;;;;;;5072443;28;20387;-70
2021/11/17 05:46:08;;;;;;;5.05;1.48;;;22.50;42.20;;;;;;5072639;28;20388;-71
2021/11/17 05:48:58;;;;;;;4.18;1.80;;;22.50;42.40;;;;;;5057827;28;20832;-71
2021/11/17 05:51:46;;;;;;;3.72;1.63;;;22.60;42.50;;;;;;5051622;28;20458;-71
2021/11/17 05:54:50;;;;;;;5.93;1.52;;;22.60;42.30;;;;;;5051315;28;20386;-71
2021/11/17 05:57:22;;;;;;;4.68;1.75;;;22.60;42.40;;;;;;5056918;28;20456;-72
2021/11/17 06:00:13;;;;;;;5.05;1.45;;;22.60;42.20;;;;;;5044565;28;20755;-70
2021/11/17 06:03:13;;;;;;;6.28;1.40;;;22.50;41.80;;;;;;5064084;28;20388;-71
2021/11/17 06:05:40;;;;;;;4.00;1.30;;;22.50;41.60;;;;;;5058126;28;20409;-71
2021/11/17 06:08:06;;;;;;;4.03;1.13;;;22.50;41.70;;;;;;5060233;28;20471;-67
2021/11/17 06:10:35;;;;;;;3.33;1.27;;;22.50;41.90;;;;;;5060736;28;20964;-70
2021/11/17 06:13:05;;;;;;;1.88;1.10;;;22.50;41.60;;;;;;5060924;28;20420;-71
2021/11/17 06:15:31;;;;;;;2.50;1.30;;;22.50;41.40;;;;;;5063859;28;20423;-71
2021/11/17 06:17:59;;;;;;;2.40;1.00;;;22.50;41.30;;;;;;5063317;28;20467;-71
2021/11/17 06:20:25;;;;;;;2.25;1.13;;;22.50;41.20;;;;;;5057336;28;20743;-68
2021/11/17 06:22:56;;;;;;;1.95;1.20;;;22.50;41.10;;;;;;5066633;28;20894;-70
2021/11/17 06:25:22;;;;;;;3.40;1.15;;;22.50;41.00;;;;;;5071500;28;20855;-70
2021/11/17 06:27:53;;;;;;;2.50;1.30;;;22.50;40.60;;;;;;5071887;28;20398;-72
2021/11/17 06:30:21;;;;;;;2.70;1.33;;;22.40;40.60;;;;;;5071801;28;20371;-72
2021/11/17 06:32:48;;;;;;;2.33;1.10;;;22.40;40.40;;;;;;5071819;28;20402;-72
2021/11/17 06:35:16;;;;;;;2.30;1.00;;;22.40;40.20;;;;;;5070514;28;20383;-72
2021/11/17 06:37:43;;;;;;;2.10;1.00;;;22.40;40.20;;;;;;5071286;28;20899;-72
2021/11/17 06:40:15;;;;;;;2.95;1.10;;;22.40;40.20;;;;;;5071442;28;20486;-71
2021/11/17 06:42:47;;;;;;;3.85;1.20;;;22.40;40.20;;;;;;5071835;28;20376;-72
2021/11/17 06:45:19;;;;;;;2.10;1.20;;;22.40;40.10;;;;;;5071769;28;20388;-72
2021/11/17 06:47:45;;;;;;;2.22;1.20;;;22.30;40.00;;;;;;5071527;28;20395;-71
2021/11/17 06:50:13;;;;;;;2.35;1.30;;;22.30;39.90;;;;;;5070049;28;20388;-72
2021/11/17 06:52:38;;;;;;;1.90;1.20;;;22.30;39.80;;;;;;5070007;28;20435;-71
2021/11/17 06:55:06;;;;;;;1.80;1.10;;;22.30;39.80;;;;;;5071711;28;20423;-71
2021/11/17 06:57:32;;;;;;;1.98;1.10;;;22.30;39.60;;;;;;5064111;28;20889;-71
2021/11/17 06:59:58;;;;;;;5.75;1.30;;;22.30;39.80;;;;;;5056538;28;20743;-71
2021/11/17 07:02:24;;;;;;;4.32;1.20;;;22.30;41.00;;;;;;5069871;28;20434;-71
2021/11/17 07:04:49;;;;;;;3.17;1.30;;;22.40;41.20;;;;;;5064337;28;20521;-72
2021/11/17 07:07:16;;;;;;;2.47;1.30;;;22.40;41.20;;;;;;5069967;28;20532;-72
2021/11/17 07:09:43;;;;;;;3.40;1.20;;;22.40;41.10;;;;;;5071170;28;20429;-71
2021/11/17 07:12:11;;;;;;;2.92;1.30;;;22.50;41.10;;;;;;5071513;28;20388;-71
2021/11/17 07:14:37;;;;;;;1.65;1.08;;;22.50;40.80;;;;;;5071283;28;20396;-72
2021/11/17 07:17:03;;;;;;;2.85;1.10;;;22.50;40.80;;;;;;5071218;28;20410;-72
2021/11/17 07:19:28;;;;;;;2.22;1.00;;;22.40;40.90;;;;;;5070080;28;20996;-72
2021/11/17 07:21:57;;;;;;;2.15;1.08;;;22.40;41.00;;;;;;5069954;28;20537;-72
2021/11/17 07:24:25;;;;;;;1.60;1.00;;;22.40;41.00;;;;;;5070165;28;20895;-71
2021/11/17 07:26:51;;;;;;;2.67;1.05;;;22.50;40.90;;;;;;5071218;28;20471;-72
2021/11/17 07:29:18;;;;;;;1.85;1.00;;;22.50;40.80;;;;;;5071106;28;20475;-72
2021/11/17 07:31:44;;;;;;;2.42;1.00;;;22.40;40.80;;;;;;5070978;28;20399;-72
2021/11/17 07:34:11;;;;;;;2.10;1.15;;;22.40;40.80;;;;;;5070998;28;20395;-72
2021/11/17 07:36:38;;;;;;;2.10;1.10;;;22.50;40.80;;;;;;5069781;28;20407;-71
2021/11/17 07:39:04;;;;;;;1.83;1.10;;;22.40;40.90;;;;;;5069831;28;20486;-71
2021/11/17 07:41:29;;;;;;;1.92;0.90;;;22.40;40.80;;;;;;5070612;28;20403;-71
2021/11/17 07:43:55;;;;;;;2.40;1.15;;;22.40;40.80;;;;;;5069919;28;20896;-72
2021/11/17 07:46:21;;;;;;;3.45;1.10;;;22.50;40.80;;;;;;5071206;28;20433;-72
2021/11/17 07:48:47;;;;;;;3.23;1.00;;;22.40;40.70;;;;;;5069789;28;20396;-71
2021/11/17 07:51:15;;;;;;;3.15;1.00;;;22.30;40.70;;;;;;5070079;28;20390;-74
2021/11/17 07:53:42;;;;;;;2.45;1.10;;;22.40;40.80;;;;;;5070644;28;20396;-71
2021/11/17 07:56:08;;;;;;;5.07;1.02;;;22.40;40.80;;;;;;5070689;28;20391;-71
2021/11/17 07:58:38;;;;;;;4.85;1.20;;;22.40;40.60;;;;;;5070680;28;20820;-71
2021/11/17 08:01:05;;;;;;;5.22;1.40;;;22.40;40.40;;;;;;5070947;28;20396;-71
2021/11/17 08:03:35;;;;;;;3.60;1.10;;;22.40;40.50;;;;;;5073900;28;20885;-70
2021/11/17 08:06:01;;;;;;;4.20;1.20;;;22.30;40.50;;;;;;5074532;28;20420;-71
2021/11/17 08:08:30;;;;;;;4.78;1.13;;;22.30;40.60;;;;;;5073482;28;20803;-70
2021/11/17 08:10:56;;;;;;;5.07;1.08;;;22.40;40.50;;;;;;5055842;28;20448;-71
2021/11/17 08:13:22;;;;;;;3.10;1.10;;;22.30;40.40;;;;;;5058998;28;20860;-71
2021/11/17 08:15:48;;;;;;;3.88;0.80;;;22.30;40.40;;;;;;5054364;28;20958;-71
2021/11/17 08:18:13;;;;;;;5.03;1.40;;;22.30;40.40;;;;;;5054115;28;20436;-71
2021/11/17 08:20:39;;;;;;;4.32;1.20;;;22.30;40.30;;;;;;5056291;28;20397;-71
2021/11/17 08:23:06;;;;;;;4.57;1.10;;;22.20;40.20;;;;;;5053992;28;20417;-71
2021/11/17 08:25:36;;;;;;;2.20;1.10;;;22.30;40.20;;;;;;5052792;28;20386;-71
2021/11/17 08:28:03;;;;;;;3.05;0.80;;;22.20;40.20;;;;;;5054127;28;20393;-71
2021/11/17 08:30:32;;;;;;;2.20;1.00;;;22.20;40.20;;;;;;5054147;28;20476;-70
2021/11/17 08:32:58;;;;;;;3.53;0.90;;;22.20;40.10;;;;;;5053741;28;20465;-71
2021/11/17 08:35:26;;;;;;;2.83;0.90;;;22.20;40.10;;;;;;5053938;28;20429;-71
2021/11/17 08:37:53;;;;;;;2.25;0.90;;;22.20;40.10;;;;;;5052547;28;20449;-70
2021/11/17 08:40:23;;;;;;;2.00;1.10;;;22.20;40.10;;;;;;5054035;28;20386;-71
2021/11/17 08:42:49;;;;;;;1.40;0.82;;;22.20;40.10;;;;;;5053395;28;20514;-71
2021/11/17 08:45:16;;;;;;;3.00;1.00;;;22.20;40.10;;;;;;5053853;28;20883;-70
2021/11/17 08:47:43;;;;;;;1.95;0.85;;;22.20;40.00;;;;;;5053716;28;20764;-71
2021/11/17 08:50:13;;;;;;;2.40;1.00;;;22.10;40.00;;;;;;5053700;28;20392;-71
2021/11/17 08:52:39;;;;;;;1.60;0.97;;;22.10;40.00;;;;;;5053528;28;20549;-71
2021/11/17 08:55:06;;;;;;;2.15;0.90;;;22.20;40.00;;;;;;5053490;28;20446;-71
2021/11/17 08:57:32;;;;;;;1.40;1.00;;;22.10;40.00;;;;;;5053429;28;20414;-71
2021/11/17 09:00:00;;;;;;;1.60;1.00;;;22.10;40.00;;;;;;5052403;28;20381;-71
2021/11/17 09:02:25;;;;;;;1.48;0.80;;;22.10;40.00;;;;;;5052196;28;20421;-71
2021/11/17 09:04:51;;;;;;;1.48;0.75;;;22.10;40.00;;;;;;5051992;28;20418;-71
2021/11/17 09:07:17;;;;;;;1.87;0.93;;;22.10;40.00;;;;;;5053487;28;20401;-71
2021/11/17 09:09:43;;;;;;;3.30;1.00;;;22.10;39.90;;;;;;5053300;28;20377;-71
2021/11/17 09:12:10;;;;;;;2.63;0.82;;;22.10;40.00;;;;;;5053383;28;20463;-71
2021/11/17 09:14:37;;;;;;;1.48;0.73;;;22.10;39.90;;;;;;5052972;28;20381;-71
2021/11/17 09:17:03;;;;;;;1.20;1.00;;;22.00;39.80;;;;;;5052981;28;20467;-71
2021/11/17 09:19:29;;;;;;;1.77;0.93;;;22.00;39.90;;;;;;5052904;28;20401;-69
2021/11/17 09:21:55;;;;;;;1.50;0.85;;;22.00;39.90;;;;;;5053244;28;20454;-72
2021/11/17 09:24:22;;;;;;;2.50;0.90;;;22.00;39.90;;;;;;5052939;28;20413;-71
2021/11/17 09:26:50;;;;;;;1.10;0.80;;;22.00;39.90;;;;;;5053005;28;20752;-72
2021/11/17 09:29:16;;;;;;;1.60;0.90;;;22.00;39.90;;;;;;5052615;28;20381;-72
2021/11/17 09:31:45;;;;;;;1.70;0.90;;;22.00;39.90;;;;;;5052504;28;20386;-72
2021/11/17 09:34:14;;;;;;;1.33;0.90;;;22.00;39.90;;;;;;5052901;28;20594;-72
2021/11/17 09:36:40;;;;;;;1.30;0.90;;;22.00;39.80;;;;;;5052984;28;20798;-72
2021/11/17 09:39:08;;;;;;;2.00;0.80;;;22.00;39.80;;;;;;5051432;28;20405;-72
2021/11/17 09:41:47;;;;;;;1.52;0.77;;;22.00;39.80;;;;;;5052729;28;20712;-71
2021/11/17 09:44:24;;;;;;;1.50;0.80;;;22.00;39.80;;;;;;5052631;28;20476;-72
2021/11/17 09:46:51;;;;;;;1.38;1.00;;;21.90;39.80;;;;;;5052535;28;20389;-72
2021/11/17 09:49:24;;;;;;;1.60;0.80;;;21.90;39.80;;;;;;5051389;28;20917;-71
2021/11/17 09:51:57;;;;;;;1.40;0.85;;;22.00;39.80;;;;;;5052437;28;20416;-72
2021/11/17 09:54:43;;;;;;;1.20;0.70;;;22.00;39.60;;;;;;5051127;28;20389;-71
2021/11/17 09:57:22;;;;;;;1.40;1.03;;;21.90;39.70;;;;;;5052336;28;20401;-72
2021/11/17 09:59:51;;;;;;;1.27;0.88;;;21.90;39.80;;;;;;5052087;28;20382;-72
2021/11/17 10:02:30;;;;;;;1.30;0.80;;;21.90;39.70;;;;;;5052401;28;20935;-72
2021/11/17 10:05:41;;;;;;;1.52;0.90;;;21.90;39.70;;;;;;5050953;28;20401;-73
2021/11/17 10:14:04;;;;;;;1.63;0.80;;;21.90;39.80;;;;;;5062950;28;20371;-71
2021/11/17 10:16:31;;;;;;;1.25;0.93;;;22.00;39.70;;;;;;5059240;28;20395;-76
2021/11/17 10:19:21;;;;;;;2.20;1.00;;;22.00;39.90;;;;;;5057220;28;20470;-76
2021/11/17 10:22:05;;;;;;;1.40;0.70;;;21.90;39.80;;;;;;5066135;28;20383;-78
2021/11/17 10:24:46;;;;;;;2.70;0.95;;;21.90;39.90;;;;;;5061622;28;20404;-71
2021/11/17 10:27:19;;;;;;;1.48;0.90;;;22.00;40.00;;;;;;5057877;28;20384;-71
2021/11/17 10:30:12;;;;;;;2.10;1.00;;;21.90;40.00;;;;;;5060677;28;20391;-72
2021/11/17 10:33:03;;;;;;;3.63;0.88;;;21.90;40.00;;;;;;5060885;28;20377;-71
2021/11/17 10:35:33;;;;;;;2.47;1.00;;;21.90;40.00;;;;;;5061823;28;20384;-71
2021/11/17 10:38:11;;;;;;;1.40;0.95;;;21.90;39.90;;;;;;5061135;28;20500;-70
2021/11/17 10:40:53;;;;;;;2.35;0.95;;;21.90;39.90;;;;;;5058899;28;20885;-70
2021/11/17 10:43:44;;;;;;;3.30;1.20;;;21.90;39.70;;;;;;5061134;28;20396;-72
2021/11/17 10:46:19;;;;;;;3.20;1.30;;;21.90;39.80;;;;;;5062535;28;20453;-71
2021/11/17 10:49:04;;;;;;;3.28;1.40;;;22.00;39.80;;;;;;5057905;28;20387;-70
2021/11/17 10:51:35;;;;;;;3.97;1.17;;;22.00;39.70;;;;;;5059131;28;20833;-70
2021/11/17 10:54:11;;;;;;;2.53;1.02;;;22.00;39.70;;;;;;5059682;28;20395;-70
2021/11/17 10:56:38;;;;;;;3.45;1.20;;;22.00;39.80;;;;;;5057433;28;20411;-70
2021/11/17 10:59:06;;;;;;;3.10;1.10;;;22.00;39.80;;;;;;5061231;28;20406;-70
2021/11/17 11:01:39;;;;;;;3.30;1.30;;;22.00;39.70;;;;;;5058362;28;20567;-71
2021/11/17 11:04:16;;;;;;;2.40;1.30;;;22.00;39.60;;;;;;5060964;28;20384;-72
2021/11/17 11:06:44;;;;;;;2.83;1.20;;;22.00;39.60;;;;;;5058513;28;20384;-70
2021/11/17 11:09:22;;;;;;;4.60;1.13;;;22.00;39.80;;;;;;5060123;28;20393;-70
2021/11/17 11:11:51;;;;;;;2.83;1.20;;;22.00;40.20;;;;;;5060150;28;20390;-70
2021/11/17 11:14:21;;;;;;;2.83;0.98;;;22.00;40.40;;;;;;5059326;28;20387;-68
2021/11/17 11:17:11;;;;;;;3.25;1.20;;;22.00;40.20;;;;;;5057284;28;20415;-71
2021/11/17 11:19:40;;;;;;;2.17;1.00;;;22.00;40.30;;;;;;5059345;28;20399;-70
2021/11/17 11:22:11;;;;;;;1.98;1.13;;;22.00;40.00;;;;;;5057625;28;20433;-70
2021/11/17 11:24:38;;;;;;;2.33;1.05;;;22.10;40.10;;;;;;5061971;28;20392;-71
2021/11/17 11:27:04;;;;;;;2.30;1.00;;;22.00;40.00;;;;;;5055291;28;20393;-68
2021/11/17 11:29:38;;;;;;;1.52;0.90;;;22.00;40.10;;;;;;5061873;28;20393;-70
2021/11/17 11:32:31;;;;;;;1.80;1.00;;;22.00;40.10;;;;;;5059993;28;20403;-70
2021/11/17 11:35:01;;;;;;;2.90;1.00;;;22.00;40.00;;;;;;5061452;28;20396;-70
2021/11/17 11:37:30;;;;;;;2.20;0.90;;;22.00;40.00;;;;;;5058491;28;21046;-71
2021/11/17 11:40:05;;;;;;;2.10;0.93;;;22.10;40.00;;;;;;5059564;28;20390;-68
2021/11/17 11:42:56;;;;;;;2.15;0.90;;;22.00;39.90;;;;;;5061494;28;20404;-71
2021/11/17 11:45:28;;;;;;;1.38;1.00;;;22.00;39.80;;;;;;5063971;28;20384;-70
2021/11/17 11:48:00;;;;;;;1.80;1.00;;;22.00;39.90;;;;;;5061864;28;20751;-71
2021/11/17 11:50:35;;;;;;;1.43;1.00;;;22.00;40.00;;;;;;5064511;28;20534;-71
2021/11/17 11:53:11;;;;;;;1.23;0.87;;;22.00;39.90;;;;;;5064266;28;20435;-68
2021/11/17 11:55:52;;;;;;;1.85;1.20;;;21.90;39.90;;;;;;5062112;28;20416;-72
2021/11/17 11:58:23;;;;;;;4.32;1.10;;;22.00;39.90;;;;;;5062420;28;20409;-68
2021/11/17 12:01:04;;;;;;;1.42;0.90;;;22.00;39.80;;;;;;5063835;28;20620;-68
2021/11/17 12:03:34;;;;;;;2.40;1.00;;;22.00;39.80;;;;;;5062362;28;20410;-68
2021/11/17 12:06:04;;;;;;;3.80;1.15;;;22.00;39.70;;;;;;5065002;28;20452;-70
2021/11/17 12:08:55;;;;;;;2.42;1.00;;;22.00;39.70;;;;;;5063908;28;21089;-71
2021/11/17 12:11:28;;;;;;;2.17;1.10;;;21.90;39.70;;;;;;5062966;28;20791;-69
2021/11/17 12:14:04;;;;;;;3.47;1.05;;;21.90;39.80;;;;;;5062961;28;20384;-71
2021/11/17 12:16:36;;;;;;;2.13;0.90;;;21.90;39.80;;;;;;5062275;28;20393;-70
2021/11/17 12:19:11;;;;;;;3.67;1.00;;;22.00;39.70;;;;;;5062285;28;20425;-69
2021/11/17 12:21:42;;;;;;;6.20;2.90;;;22.00;40.10;;;;;;5062705;28;20442;-69
2021/11/17 12:24:20;;;;;;;3.97;1.98;;;22.00;41.50;;;;;;5062383;28;20401;-71
2021/11/17 12:27:17;;;;;;;5.47;1.63;;;22.10;42.30;;;;;;5061013;28;20810;-72
2021/11/17 12:29:58;;;;;;;9.30;2.40;;;22.10;41.60;;;;;;5060388;28;20388;-72
2021/11/17 12:32:32;;;;;;;8.43;1.85;;;22.20;41.80;;;;;;5066381;28;20393;-73
2021/11/17 12:35:17;;;;;;;10.17;2.20;;;22.20;41.50;;;;;;5062433;28;20481;-71
2021/11/17 12:37:57;;;;;;;6.55;1.75;;;22.10;40.70;;;;;;5065795;28;20767;-72
2021/11/17 12:40:39;;;;;;;7.38;2.03;;;22.10;40.70;;;;;;5060507;28;20389;-68
2021/11/17 12:43:15;;;;;;;4.97;1.70;;;22.10;40.60;;;;;;5061541;28;20404;-72
2021/11/17 12:46:25;;;;;;;6.15;1.55;;;22.10;40.60;;;;;;5059575;28;21091;-70
2021/11/17 12:49:14;;;;;;;4.00;1.58;;;22.00;40.40;;;;;;5066714;28;20889;-71
2021/11/17 12:52:02;;;;;;;5.63;1.80;;;22.00;40.50;;;;;;5058676;28;20395;-72
2021/11/17 12:54:48;;;;;;;4.20;1.70;;;22.00;40.70;;;;;;5060611;28;20395;-72
2021/11/17 12:57:20;;;;;;;5.70;1.42;;;22.10;41.90;;;;;;5063415;28;20403;-73
2021/11/17 12:59:49;;;;;;;8.30;1.70;;;22.10;41.40;;;;;;5061722;28;20396;-73
2021/11/17 13:02:21;;;;;;;7.97;1.63;;;22.20;42.50;;;;;;5062741;28;20396;-73
2021/11/17 13:05:16;;;;;;;6.00;1.50;;;22.10;41.90;;;;;;5059615;28;20397;-72
2021/11/17 13:08:08;;;;;;;6.45;1.40;;;22.10;41.80;;;;;;5061580;28;21158;-73
2021/11/17 13:10:52;;;;;;;7.60;1.40;;;22.10;41.40;;;;;;5060316;28;20388;-72
2021/11/17 13:13:21;;;;;;;4.75;1.33;;;22.20;41.30;;;;;;5060317;28;20856;-71
2021/11/17 13:16:09;;;;;;;4.95;1.35;;;22.20;40.90;;;;;;5062928;28;20396;-72
2021/11/17 13:18:44;;;;;;;4.63;1.27;;;22.20;40.70;;;;;;5061857;28;20436;-75
2021/11/17 13:21:22;;;;;;;3.83;1.30;;;22.20;40.70;;;;;;5060657;28;20390;-71
2021/11/17 13:24:00;;;;;;;4.40;1.30;;;22.20;40.80;;;;;;5059307;28;20404;-71
2021/11/17 13:26:48;;;;;;;5.97;1.40;;;22.20;42.00;;;;;;5059980;28;20444;-72
2021/11/17 13:29:44;;;;;;;3.33;1.10;;;22.20;42.50;;;;;;5083995;28;20402;-71
2021/11/17 13:32:12;;;;;;;3.00;1.30;;;22.20;42.40;;;;;;5062765;28;20388;-71
2021/11/17 13:35:11;;;;;;;4.82;1.42;;;22.20;42.50;;;;;;5060909;28;20477;-70
2021/11/17 13:37:41;;;;;;;4.45;1.33;;;22.20;42.00;;;;;;5044156;28;20418;-67
2021/11/17 13:40:20;;;;;;;4.63;1.30;;;22.20;41.70;;;;;;5057207;28;20779;-68
2021/11/17 13:42:47;;;;;;;5.28;1.30;;;22.20;42.00;;;;;;5052696;28;20392;-67
2021/11/17 13:45:17;;;;;;;5.88;1.40;;;22.20;41.80;;;;;;5071124;28;20387;-67
2021/11/17 13:47:44;;;;;;;4.55;1.23;;;22.10;41.70;;;;;;5072424;28;20911;-68
2021/11/17 13:50:11;;;;;;;6.28;1.40;;;22.20;41.50;;;;;;5072422;28;20420;-67
2021/11/17 13:52:40;;;;;;;4.93;1.10;;;22.10;42.00;;;;;;5072519;28;20394;-67
2021/11/17 13:55:11;;;;;;;4.97;1.30;;;22.10;42.00;;;;;;5072194;28;20387;-67
2021/11/17 13:57:37;;;;;;;4.27;1.03;;;22.10;41.80;;;;;;5072319;28;20454;-68
2021/11/17 14:00:09;;;;;;;4.82;1.17;;;22.10;41.70;;;;;;5069484;28;20897;-68
2021/11/17 14:02:36;;;;;;;3.55;1.20;;;22.10;41.80;;;;;;5070754;28;20445;-68
2021/11/17 14:05:03;;;;;;;3.53;1.15;;;22.20;41.70;;;;;;5071925;28;20459;-68
2021/11/17 14:07:32;;;;;;;3.95;1.05;;;22.20;41.70;;;;;;5072709;28;20392;-68
2021/11/17 14:09:59;;;;;;;4.80;1.30;;;22.10;41.40;;;;;;5068453;28;20385;-74
2021/11/17 14:12:26;;;;;;;3.53;1.25;;;22.10;41.30;;;;;;5059180;28;20873;-73
2021/11/17 14:14:53;;;;;;;2.92;1.50;;;22.10;41.20;;;;;;5061624;28;20393;-73
2021/11/17 14:17:20;;;;;;;4.32;1.23;;;22.00;41.70;;;;;;5060217;28;20744;-72
2021/11/17 14:19:47;;;;;;;5.40;1.40;;;22.10;41.70;;;;;;5060648;28;20396;-72
2021/11/17 14:22:13;;;;;;;5.10;1.40;;;22.10;41.60;;;;;;5060221;28;20472;-72
2021/11/17 14:24:39;;;;;;;3.70;1.60;;;22.10;41.60;;;;;;5058027;28;20491;-73
2021/11/17 14:27:08;;;;;;;5.32;1.98;;;22.10;41.40;;;;;;5059603;28;20425;-73
2021/11/17 14:29:47;;;;;;;4.50;1.80;;;22.10;40.90;;;;;;5055462;28;20479;-72
2021/11/17 14:32:42;;;;;;;6.05;2.03;;;22.10;41.00;;;;;;5059733;28;20388;-73
2021/11/17 14:35:10;;;;;;;4.68;1.80;;;22.10;40.80;;;;;;5061307;28;20400;-73
2021/11/17 14:37:36;;;;;;;4.00;1.90;;;22.20;40.80;;;;;;5061576;28;20777;-73
2021/11/17 14:40:04;;;;;;;3.95;1.65;;;22.20;40.80;;;;;;5059655;28;20385;-73
2021/11/17 14:42:31;;;;;;;4.05;1.60;;;22.20;40.60;;;;;;5062825;28;20482;-73
2021/11/17 14:44:57;;;;;;;5.97;1.67;;;22.20;40.50;;;;;;5060561;28;20388;-74
2021/11/17 14:47:22;;;;;;;4.55;1.45;;;22.20;40.70;;;;;;5060229;28;20402;-74
2021/11/17 14:49:48;;;;;;;4.20;1.80;;;22.20;40.70;;;;;;5059675;28;20788;-74
2021/11/17 14:52:21;;;;;;;5.80;1.67;;;22.20;40.80;;;;;;5061564;28;20396;-70
2021/11/17 14:54:47;;;;;;;6.75;1.55;;;22.20;40.90;;;;;;5060211;28;20453;-73
2021/11/17 14:57:13;;;;;;;11.57;1.90;;;22.20;40.90;;;;;;5058952;28;20407;-72
2021/11/17 14:59:39;;;;;;;3.23;1.40;;;22.20;40.90;;;;;;5061542;28;20475;-73
2021/11/17 15:02:06;;;;;;;4.55;1.48;;;22.30;40.90;;;;;;5059768;28;20524;-74
2021/11/17 15:04:35;;;;;;;3.40;1.50;;;22.30;40.90;;;;;;5059584;28;20402;-74
2021/11/17 15:07:03;;;;;;;3.47;1.30;;;22.30;40.80;;;;;;5058057;28;20394;-74
2021/11/17 15:09:29;;;;;;;2.63;1.27;;;22.30;40.70;;;;;;5062905;28;20396;-73
2021/11/17 15:12:00;;;;;;;4.03;1.40;;;22.30;40.70;;;;;;5062735;28;20391;-74
2021/11/17 15:14:30;;;;;;;4.27;1.30;;;22.30;40.70;;;;;;5064743;28;20455;-73
2021/11/17 15:16:58;;;;;;;3.55;1.30;;;22.30;40.70;;;;;;5062446;28;20392;-69
2021/11/17 15:19:25;;;;;;;4.05;1.88;;;22.30;40.60;;;;;;5064232;28;20396;-73
2021/11/17 15:21:51;;;;;;;3.22;1.23;;;22.30;40.60;;;;;;5061854;28;20398;-72
2021/11/17 15:24:18;;;;;;;2.53;1.10;;;22.30;40.60;;;;;;5071351;28;20426;-71
2021/11/17 15:26:58;;;;;;;4.30;1.50;;;22.30;40.40;;;;;;5060116;28;20396;-72
2021/11/17 15:29:24;;;;;;;2.40;1.27;;;22.30;40.30;;;;;;5062412;28;20472;-70
2021/11/17 15:31:50;;;;;;;3.20;1.25;;;22.30;40.70;;;;;;5062359;28;20636;-71
2021/11/17 15:34:16;;;;;;;3.78;1.20;;;22.20;41.20;;;;;;5062275;28;20425;-71
2021/11/17 15:36:42;;;;;;;4.28;1.30;;;22.20;41.50;;;;;;5065766;28;20388;-72
2021/11/17 15:39:08;;;;;;;3.33;1.50;;;22.30;41.00;;;;;;5063243;28;20923;-70
2021/11/17 15:41:37;;;;;;;2.22;1.20;;;22.20;41.10;;;;;;5063509;28;21173;-68
2021/11/17 15:44:04;;;;;;;4.07;1.30;;;22.20;40.90;;;;;;5064800;28;20404;-68
2021/11/17 15:46:30;;;;;;;2.25;1.30;;;22.20;40.70;;;;;;5064255;28;20393;-68
2021/11/17 15:48:57;;;;;;;2.70;1.10;;;22.20;40.70;;;;;;5062578;28;20401;-69
2021/11/17 15:51:27;;;;;;;2.88;1.20;;;22.20;40.60;;;;;;5071516;28;20392;-68
2021/11/17 15:53:56;;;;;;;4.38;2.00;;;22.20;40.80;;;;;;5074985;28;20869;-69
2021/11/17 15:56:23;;;;;;;4.10;1.90;;;22.20;41.30;;;;;;5075187;28;20541;-68
2021/11/17 15:58:51;;;;;;;4.97;1.90;;;22.20;41.90;;;;;;5067978;28;20421;-68
2021/11/17 16:01:20;;;;;;;4.10;1.55;;;22.30;41.90;;;;;;5065025;28;20469;-73